sensor_id;sensor_type;location;lat;lon;timestamp;P1;durP1;ratioP1;P2;durP2;ratioP2
15637;SDS011;26604;53.596;10.042;2022-12-08T00:00:27;5.35;;;1.75;;
15637;SDS011;26604;53.596;10.042;2022-12-08T00:02:54;6.60;;;2.05;;
15637;SDS011;26604;53.596;10.042;2022-12-08T00:05:21;5.63;;;1.90;;
15637;SDS011;26604;53.596;10.042;2022-12-08T00:08:15;4.40;;;1.98;;
15637;SDS011;26604;53.596;10.042;2022-12-08T00:10:59;4.88;;;1.35;;
15637;SDS011;26604;53.596;10.042;2022-12-08T00:13:26;7.38;;;2.10;;
15637;SDS011;26604;53.596;10.042;2022-12-08T00:15:54;4.85;;;1.80;;
15637;SDS011;26604;53.596;10.042;2022-12-08T00:18:25;7.35;;;2.17;;
15637;SDS011;26604;53.596;10.042;2022-12-08T00:20:53;5.57;;;2.08;;
15637;SDS011;26604;53.596;10.042;2022-12-08T00:23:22;4.60;;;2.00;;
15637;SDS011;26604;53.596;10.042;2022-12-08T00:25:49;5.72;;;1.60;;
15637;SDS011;26604;53.596;10.042;2022-12-08T00:28:16;6.35;;;2.10;;
15637;SDS011;26604;53.596;10.042;2022-12-08T00:30:43;3.47;;;1.50;;
15637;SDS011;26604;53.596;10.042;2022-12-08T00:33:10;5.57;;;1.90;;
15637;SDS011;26604;53.596;10.042;2022-12-08T00:35:37;4.63;;;1.70;;
15637;SDS011;26604;53.596;10.042;2022-12-08T00:38:04;5.00;;;2.10;;
15637;SDS011;26604;53.596;10.042;2022-12-08T00:40:32;4.32;;;1.55;;
15637;SDS011;26604;53.596;10.042;2022-12-08T00:42:59;6.07;;;2.38;;
15637;SDS011;26604;53.596;10.042;2022-12-08T00:45:26;6.80;;;1.52;;
15637;SDS011;26604;53.596;10.042;2022-12-08T00:47:53;5.10;;;2.03;;
15637;SDS011;26604;53.596;10.042;2022-12-08T00:50:20;4.78;;;1.77;;
15637;SDS011;26604;53.596;10.042;2022-12-08T00:52:47;5.80;;;1.83;;
15637;SDS011;26604;53.596;10.042;2022-12-08T00:55:13;4.88;;;1.55;;
15637;SDS011;26604;53.596;10.042;2022-12-08T00:57:42;4.40;;;1.90;;
15637;SDS011;26604;53.596;10.042;2022-12-08T01:00:09;3.50;;;1.90;;
15637;SDS011;26604;53.596;10.042;2022-12-08T01:02:37;4.45;;;1.90;;
15637;SDS011;26604;53.596;10.042;2022-12-08T01:05:04;4.65;;;1.67;;
15637;SDS011;26604;53.596;10.042;2022-12-08T01:07:31;9.02;;;2.10;;
15637;SDS011;26604;53.596;10.042;2022-12-08T01:09:58;5.70;;;2.17;;
15637;SDS011;26604;53.596;10.042;2022-12-08T01:12:27;5.32;;;1.73;;
15637;SDS011;26604;53.596;10.042;2022-12-08T01:14:55;3.80;;;1.75;;
15637;SDS011;26604;53.596;10.042;2022-12-08T01:17:22;7.07;;;2.17;;
15637;SDS011;26604;53.596;10.042;2022-12-08T01:19:49;6.03;;;1.95;;
15637;SDS011;26604;53.596;10.042;2022-12-08T01:22:16;5.43;;;1.70;;
15637;SDS011;26604;53.596;10.042;2022-12-08T01:24:43;8.77;;;3.15;;
15637;SDS011;26604;53.596;10.042;2022-12-08T01:27:10;5.10;;;1.80;;
15637;SDS011;26604;53.596;10.042;2022-12-08T01:29:37;5.40;;;1.77;;
15637;SDS011;26604;53.596;10.042;2022-12-08T01:32:06;5.78;;;1.67;;
15637;SDS011;26604;53.596;10.042;2022-12-08T01:34:33;4.28;;;1.67;;
15637;SDS011;26604;53.596;10.042;2022-12-08T01:37:00;6.15;;;1.65;;
15637;SDS011;26604;53.596;10.042;2022-12-08T01:39:27;3.17;;;1.60;;
15637;SDS011;26604;53.596;10.042;2022-12-08T01:41:54;6.07;;;1.88;;
15637;SDS011;26604;53.596;10.042;2022-12-08T01:47:26;6.65;;;1.65;;
15637;SDS011;26604;53.596;10.042;2022-12-08T01:49:56;4.40;;;1.25;;
15637;SDS011;26604;53.596;10.042;2022-12-08T01:52:24;5.25;;;1.52;;
15637;SDS011;26604;53.596;10.042;2022-12-08T01:54:55;4.88;;;1.50;;
15637;SDS011;26604;53.596;10.042;2022-12-08T01:57:25;5.00;;;1.60;;
15637;SDS011;26604;53.596;10.042;2022-12-08T01:59:56;3.05;;;1.70;;
15637;SDS011;26604;53.596;10.042;2022-12-08T02:02:30;10.25;;;2.03;;
15637;SDS011;26604;53.596;10.042;2022-12-08T02:05:02;2.38;;;1.38;;
15637;SDS011;26604;53.596;10.042;2022-12-08T02:07:31;6.38;;;1.60;;
15637;SDS011;26604;53.596;10.042;2022-12-08T02:09:58;4.82;;;1.50;;
15637;SDS011;26604;53.596;10.042;2022-12-08T02:12:25;5.63;;;1.60;;
15637;SDS011;26604;53.596;10.042;2022-12-08T02:14:52;4.65;;;1.42;;
15637;SDS011;26604;53.596;10.042;2022-12-08T02:17:23;3.50;;;1.30;;
15637;SDS011;26604;53.596;10.042;2022-12-08T02:22:57;2.22;;;1.23;;
15637;SDS011;26604;53.596;10.042;2022-12-08T02:25:32;3.65;;;1.42;;
15637;SDS011;26604;53.596;10.042;2022-12-08T02:28:24;5.38;;;1.60;;
15637;SDS011;26604;53.596;10.042;2022-12-08T02:31:08;2.25;;;1.30;;
15637;SDS011;26604;53.596;10.042;2022-12-08T02:33:50;4.93;;;1.20;;
15637;SDS011;26604;53.596;10.042;2022-12-08T02:36:30;4.72;;;1.65;;
15637;SDS011;26604;53.596;10.042;2022-12-08T02:39:05;3.15;;;1.40;;
15637;SDS011;26604;53.596;10.042;2022-12-08T02:41:38;3.83;;;1.60;;
15637;SDS011;26604;53.596;10.042;2022-12-08T02:44:11;3.75;;;1.45;;
15637;SDS011;26604;53.596;10.042;2022-12-08T02:46:44;4.28;;;1.33;;
15637;SDS011;26604;53.596;10.042;2022-12-08T02:49:17;5.63;;;1.38;;
15637;SDS011;26604;53.596;10.042;2022-12-08T02:51:44;3.88;;;1.30;;
15637;SDS011;26604;53.596;10.042;2022-12-08T02:54:11;3.60;;;1.80;;
15637;SDS011;26604;53.596;10.042;2022-12-08T02:56:44;2.78;;;1.50;;
15637;SDS011;26604;53.596;10.042;2022-12-08T02:59:40;3.03;;;1.10;;
15637;SDS011;26604;53.596;10.042;2022-12-08T03:02:22;5.50;;;1.15;;
15637;SDS011;26604;53.596;10.042;2022-12-08T03:05:03;1.95;;;1.33;;
15637;SDS011;26604;53.596;10.042;2022-12-08T03:07:37;3.13;;;1.20;;
15637;SDS011;26604;53.596;10.042;2022-12-08T03:10:09;3.08;;;1.20;;
15637;SDS011;26604;53.596;10.042;2022-12-08T03:12:40;2.28;;;1.08;;
15637;SDS011;26604;53.596;10.042;2022-12-08T03:15:12;3.53;;;1.00;;
15637;SDS011;26604;53.596;10.042;2022-12-08T03:17:42;3.83;;;1.15;;
15637;SDS011;26604;53.596;10.042;2022-12-08T03:20:13;4.00;;;1.33;;
15637;SDS011;26604;53.596;10.042;2022-12-08T03:22:49;3.72;;;1.20;;
15637;SDS011;26604;53.596;10.042;2022-12-08T03:25:18;3.28;;;1.35;;
15637;SDS011;26604;53.596;10.042;2022-12-08T03:27:47;1.35;;;1.10;;
15637;SDS011;26604;53.596;10.042;2022-12-08T03:30:16;4.72;;;0.90;;
15637;SDS011;26604;53.596;10.042;2022-12-08T03:32:46;2.88;;;1.17;;
15637;SDS011;26604;53.596;10.042;2022-12-08T03:35:19;1.85;;;0.80;;
15637;SDS011;26604;53.596;10.042;2022-12-08T03:37:48;2.58;;;1.27;;
15637;SDS011;26604;53.596;10.042;2022-12-08T03:40:17;4.10;;;1.50;;
15637;SDS011;26604;53.596;10.042;2022-12-08T03:42:45;2.17;;;1.30;;
15637;SDS011;26604;53.596;10.042;2022-12-08T03:45:12;2.38;;;1.27;;
15637;SDS011;26604;53.596;10.042;2022-12-08T03:47:39;1.35;;;0.82;;
15637;SDS011;26604;53.596;10.042;2022-12-08T03:50:06;2.10;;;0.98;;
15637;SDS011;26604;53.596;10.042;2022-12-08T03:52:34;5.95;;;0.90;;
15637;SDS011;26604;53.596;10.042;2022-12-08T03:55:01;1.90;;;1.30;;
15637;SDS011;26604;53.596;10.042;2022-12-08T03:57:29;2.22;;;1.10;;
15637;SDS011;26604;53.596;10.042;2022-12-08T03:59:55;6.75;;;1.25;;
15637;SDS011;26604;53.596;10.042;2022-12-08T04:02:22;2.15;;;0.85;;
15637;SDS011;26604;53.596;10.042;2022-12-08T04:04:49;1.42;;;0.95;;
15637;SDS011;26604;53.596;10.042;2022-12-08T04:07:16;2.47;;;1.10;;
15637;SDS011;26604;53.596;10.042;2022-12-08T04:09:44;1.50;;;0.80;;
15637;SDS011;26604;53.596;10.042;2022-12-08T04:12:11;1.88;;;1.00;;
15637;SDS011;26604;53.596;10.042;2022-12-08T04:14:38;4.07;;;1.15;;
15637;SDS011;26604;53.596;10.042;2022-12-08T04:17:05;3.35;;;0.90;;
15637;SDS011;26604;53.596;10.042;2022-12-08T04:19:32;2.65;;;0.90;;
15637;SDS011;26604;53.596;10.042;2022-12-08T04:21:58;1.80;;;0.95;;
15637;SDS011;26604;53.596;10.042;2022-12-08T04:24:25;1.92;;;0.80;;
15637;SDS011;26604;53.596;10.042;2022-12-08T04:26:54;3.20;;;0.80;;
15637;SDS011;26604;53.596;10.042;2022-12-08T04:29:21;1.08;;;0.80;;
15637;SDS011;26604;53.596;10.042;2022-12-08T04:31:47;1.65;;;0.80;;
15637;SDS011;26604;53.596;10.042;2022-12-08T04:34:14;2.75;;;0.90;;
15637;SDS011;26604;53.596;10.042;2022-12-08T04:36:41;2.15;;;0.70;;
15637;SDS011;26604;53.596;10.042;2022-12-08T04:39:08;1.50;;;0.82;;
15637;SDS011;26604;53.596;10.042;2022-12-08T04:41:35;1.58;;;0.82;;
15637;SDS011;26604;53.596;10.042;2022-12-08T04:44:03;2.08;;;0.63;;
15637;SDS011;26604;53.596;10.042;2022-12-08T04:46:30;2.53;;;0.73;;
15637;SDS011;26604;53.596;10.042;2022-12-08T04:48:57;1.25;;;0.60;;
15637;SDS011;26604;53.596;10.042;2022-12-08T04:51:24;0.95;;;0.70;;
15637;SDS011;26604;53.596;10.042;2022-12-08T04:53:51;4.20;;;1.30;;
15637;SDS011;26604;53.596;10.042;2022-12-08T04:56:18;2.08;;;0.80;;
15637;SDS011;26604;53.596;10.042;2022-12-08T04:58:45;2.17;;;0.90;;
15637;SDS011;26604;53.596;10.042;2022-12-08T05:01:13;2.60;;;0.65;;
15637;SDS011;26604;53.596;10.042;2022-12-08T05:03:40;1.38;;;0.70;;
15637;SDS011;26604;53.596;10.042;2022-12-08T05:06:08;3.30;;;1.00;;
15637;SDS011;26604;53.596;10.042;2022-12-08T05:08:37;1.25;;;0.60;;
15637;SDS011;26604;53.596;10.042;2022-12-08T05:11:05;1.60;;;0.70;;
15637;SDS011;26604;53.596;10.042;2022-12-08T05:13:33;1.15;;;0.80;;
15637;SDS011;26604;53.596;10.042;2022-12-08T05:16:03;1.33;;;0.70;;
15637;SDS011;26604;53.596;10.042;2022-12-08T05:18:33;1.70;;;0.80;;
15637;SDS011;26604;53.596;10.042;2022-12-08T05:21:00;2.30;;;0.63;;
15637;SDS011;26604;53.596;10.042;2022-12-08T05:23:27;1.95;;;1.30;;
15637;SDS011;26604;53.596;10.042;2022-12-08T05:25:54;0.90;;;0.60;;
15637;SDS011;26604;53.596;10.042;2022-12-08T05:28:20;0.82;;;0.68;;
15637;SDS011;26604;53.596;10.042;2022-12-08T05:30:47;0.70;;;0.50;;
15637;SDS011;26604;53.596;10.042;2022-12-08T05:33:15;1.90;;;0.70;;
15637;SDS011;26604;53.596;10.042;2022-12-08T05:35:43;1.30;;;0.63;;
15637;SDS011;26604;53.596;10.042;2022-12-08T05:38:10;2.95;;;0.65;;
15637;SDS011;26604;53.596;10.042;2022-12-08T05:40:37;1.25;;;0.73;;
15637;SDS011;26604;53.596;10.042;2022-12-08T05:43:04;1.75;;;0.80;;
15637;SDS011;26604;53.596;10.042;2022-12-08T05:45:33;1.33;;;1.08;;
15637;SDS011;26604;53.596;10.042;2022-12-08T05:48:00;1.33;;;0.80;;
15637;SDS011;26604;53.596;10.042;2022-12-08T05:50:27;1.33;;;0.70;;
15637;SDS011;26604;53.596;10.042;2022-12-08T05:52:55;1.70;;;0.70;;
15637;SDS011;26604;53.596;10.042;2022-12-08T05:55:22;1.20;;;0.60;;
15637;SDS011;26604;53.596;10.042;2022-12-08T05:57:49;3.55;;;1.10;;
15637;SDS011;26604;53.596;10.042;2022-12-08T06:00:16;4.75;;;1.05;;
15637;SDS011;26604;53.596;10.042;2022-12-08T06:02:44;4.32;;;0.80;;
15637;SDS011;26604;53.596;10.042;2022-12-08T06:05:10;0.95;;;0.52;;
15637;SDS011;26604;53.596;10.042;2022-12-08T06:07:37;5.40;;;0.70;;
15637;SDS011;26604;53.596;10.042;2022-12-08T06:10:07;3.03;;;0.80;;
15637;SDS011;26604;53.596;10.042;2022-12-08T06:12:34;4.57;;;0.80;;
15637;SDS011;26604;53.596;10.042;2022-12-08T06:15:01;2.33;;;0.82;;
15637;SDS011;26604;53.596;10.042;2022-12-08T06:17:28;7.60;;;0.90;;
15637;SDS011;26604;53.596;10.042;2022-12-08T06:19:54;10.63;;;0.85;;
15637;SDS011;26604;53.596;10.042;2022-12-08T06:22:21;2.03;;;0.80;;
15637;SDS011;26604;53.596;10.042;2022-12-08T06:24:48;6.03;;;0.98;;
15637;SDS011;26604;53.596;10.042;2022-12-08T06:27:16;1.65;;;0.70;;
15637;SDS011;26604;53.596;10.042;2022-12-08T06:29:43;4.53;;;0.65;;
15637;SDS011;26604;53.596;10.042;2022-12-08T06:32:10;1.33;;;0.70;;
15637;SDS011;26604;53.596;10.042;2022-12-08T06:34:37;2.85;;;0.68;;
15637;SDS011;26604;53.596;10.042;2022-12-08T06:37:04;6.07;;;0.73;;
15637;SDS011;26604;53.596;10.042;2022-12-08T06:39:31;6.55;;;0.88;;
15637;SDS011;26604;53.596;10.042;2022-12-08T06:41:58;1.75;;;0.80;;
15637;SDS011;26604;53.596;10.042;2022-12-08T06:44:44;4.47;;;1.23;;
15637;SDS011;26604;53.596;10.042;2022-12-08T06:47:11;5.10;;;0.85;;
15637;SDS011;26604;53.596;10.042;2022-12-08T06:49:38;3.83;;;1.08;;
15637;SDS011;26604;53.596;10.042;2022-12-08T06:52:05;4.32;;;0.80;;
15637;SDS011;26604;53.596;10.042;2022-12-08T06:54:32;1.15;;;0.50;;
15637;SDS011;26604;53.596;10.042;2022-12-08T06:56:59;3.85;;;1.05;;
15637;SDS011;26604;53.596;10.042;2022-12-08T06:59:25;2.45;;;0.70;;
15637;SDS011;26604;53.596;10.042;2022-12-08T07:01:54;3.70;;;0.80;;
15637;SDS011;26604;53.596;10.042;2022-12-08T07:04:21;3.53;;;0.80;;
15637;SDS011;26604;53.596;10.042;2022-12-08T07:06:48;8.02;;;0.82;;
15637;SDS011;26604;53.596;10.042;2022-12-08T07:09:15;6.63;;;0.90;;
15637;SDS011;26604;53.596;10.042;2022-12-08T07:11:42;3.80;;;0.77;;
15637;SDS011;26604;53.596;10.042;2022-12-08T07:14:09;2.58;;;0.50;;
15637;SDS011;26604;53.596;10.042;2022-12-08T07:16:36;5.88;;;1.35;;
15637;SDS011;26604;53.596;10.042;2022-12-08T07:19:04;3.58;;;0.77;;
15637;SDS011;26604;53.596;10.042;2022-12-08T07:21:31;4.18;;;0.95;;
15637;SDS011;26604;53.596;10.042;2022-12-08T07:23:58;9.00;;;1.33;;
15637;SDS011;26604;53.596;10.042;2022-12-08T07:26:25;2.20;;;1.00;;
15637;SDS011;26604;53.596;10.042;2022-12-08T07:28:52;3.03;;;0.80;;
15637;SDS011;26604;53.596;10.042;2022-12-08T07:31:19;3.25;;;1.20;;
15637;SDS011;26604;53.596;10.042;2022-12-08T07:33:48;1.98;;;0.82;;
15637;SDS011;26604;53.596;10.042;2022-12-08T07:36:17;5.85;;;0.70;;
15637;SDS011;26604;53.596;10.042;2022-12-08T07:38:44;5.22;;;0.88;;
15637;SDS011;26604;53.596;10.042;2022-12-08T07:41:11;1.83;;;0.70;;
15637;SDS011;26604;53.596;10.042;2022-12-08T07:43:39;6.13;;;0.70;;
15637;SDS011;26604;53.596;10.042;2022-12-08T07:46:06;1.52;;;0.65;;
15637;SDS011;26604;53.596;10.042;2022-12-08T07:48:33;3.33;;;0.70;;
15637;SDS011;26604;53.596;10.042;2022-12-08T07:51:00;2.65;;;0.73;;
15637;SDS011;26604;53.596;10.042;2022-12-08T07:53:28;7.20;;;0.60;;
15637;SDS011;26604;53.596;10.042;2022-12-08T07:55:55;3.08;;;0.70;;
15637;SDS011;26604;53.596;10.042;2022-12-08T07:58:23;5.57;;;0.90;;
15637;SDS011;26604;53.596;10.042;2022-12-08T08:00:51;5.60;;;0.68;;
15637;SDS011;26604;53.596;10.042;2022-12-08T08:03:18;4.03;;;0.77;;
15637;SDS011;26604;53.596;10.042;2022-12-08T08:05:46;4.30;;;0.65;;
15637;SDS011;26604;53.596;10.042;2022-12-08T08:08:14;2.28;;;0.52;;
15637;SDS011;26604;53.596;10.042;2022-12-08T08:10:42;1.98;;;0.80;;
15637;SDS011;26604;53.596;10.042;2022-12-08T08:13:10;3.80;;;0.60;;
15637;SDS011;26604;53.596;10.042;2022-12-08T08:15:37;4.53;;;0.65;;
15637;SDS011;26604;53.596;10.042;2022-12-08T08:18:05;7.78;;;0.90;;
15637;SDS011;26604;53.596;10.042;2022-12-08T08:20:32;4.93;;;0.93;;
15637;SDS011;26604;53.596;10.042;2022-12-08T08:22:59;6.57;;;1.00;;
15637;SDS011;26604;53.596;10.042;2022-12-08T08:25:26;13.77;;;1.20;;
15637;SDS011;26604;53.596;10.042;2022-12-08T08:27:54;9.30;;;1.50;;
15637;SDS011;26604;53.596;10.042;2022-12-08T08:30:21;11.77;;;1.30;;
15637;SDS011;26604;53.596;10.042;2022-12-08T08:32:48;6.13;;;0.80;;
15637;SDS011;26604;53.596;10.042;2022-12-08T08:35:16;9.48;;;1.50;;
15637;SDS011;26604;53.596;10.042;2022-12-08T08:37:43;7.97;;;0.90;;
15637;SDS011;26604;53.596;10.042;2022-12-08T08:40:10;7.65;;;1.20;;
15637;SDS011;26604;53.596;10.042;2022-12-08T08:42:37;2.10;;;0.70;;
15637;SDS011;26604;53.596;10.042;2022-12-08T08:45:06;6.43;;;1.00;;
15637;SDS011;26604;53.596;10.042;2022-12-08T08:47:33;5.45;;;0.80;;
15637;SDS011;26604;53.596;10.042;2022-12-08T08:50:00;8.98;;;0.90;;
15637;SDS011;26604;53.596;10.042;2022-12-08T08:52:27;12.10;;;1.38;;
15637;SDS011;26604;53.596;10.042;2022-12-08T08:54:54;3.58;;;0.98;;
15637;SDS011;26604;53.596;10.042;2022-12-08T08:57:21;7.35;;;0.90;;
15637;SDS011;26604;53.596;10.042;2022-12-08T08:59:48;2.35;;;0.88;;
15637;SDS011;26604;53.596;10.042;2022-12-08T09:02:16;3.30;;;0.95;;
15637;SDS011;26604;53.596;10.042;2022-12-08T09:04:45;5.35;;;1.23;;
15637;SDS011;26604;53.596;10.042;2022-12-08T09:07:12;3.78;;;1.05;;
15637;SDS011;26604;53.596;10.042;2022-12-08T09:09:40;5.68;;;1.55;;
15637;SDS011;26604;53.596;10.042;2022-12-08T09:12:07;3.63;;;1.00;;
15637;SDS011;26604;53.596;10.042;2022-12-08T09:14:34;7.07;;;0.73;;
15637;SDS011;26604;53.596;10.042;2022-12-08T09:17:02;5.82;;;0.77;;
15637;SDS011;26604;53.596;10.042;2022-12-08T09:19:30;7.30;;;1.00;;
15637;SDS011;26604;53.596;10.042;2022-12-08T09:21:57;4.68;;;0.80;;
15637;SDS011;26604;53.596;10.042;2022-12-08T09:24:24;3.97;;;1.08;;
15637;SDS011;26604;53.596;10.042;2022-12-08T09:26:51;3.20;;;0.73;;
15637;SDS011;26604;53.596;10.042;2022-12-08T09:29:17;0.65;;;0.40;;
15637;SDS011;26604;53.596;10.042;2022-12-08T09:31:44;6.03;;;0.98;;
15637;SDS011;26604;53.596;10.042;2022-12-08T09:34:11;3.63;;;0.73;;
15637;SDS011;26604;53.596;10.042;2022-12-08T09:36:39;3.03;;;0.65;;
15637;SDS011;26604;53.596;10.042;2022-12-08T09:39:06;5.75;;;0.80;;
15637;SDS011;26604;53.596;10.042;2022-12-08T09:41:35;2.63;;;1.02;;
15637;SDS011;26604;53.596;10.042;2022-12-08T09:44:06;2.83;;;0.60;;
15637;SDS011;26604;53.596;10.042;2022-12-08T09:46:45;5.40;;;1.55;;
15637;SDS011;26604;53.596;10.042;2022-12-08T09:49:15;2.33;;;0.60;;
15637;SDS011;26604;53.596;10.042;2022-12-08T09:51:45;1.95;;;0.60;;
15637;SDS011;26604;53.596;10.042;2022-12-08T09:54:14;3.97;;;0.70;;
15637;SDS011;26604;53.596;10.042;2022-12-08T09:56:44;4.13;;;0.60;;
15637;SDS011;26604;53.596;10.042;2022-12-08T09:59:17;5.55;;;0.70;;
15637;SDS011;26604;53.596;10.042;2022-12-08T10:01:48;2.60;;;0.60;;
15637;SDS011;26604;53.596;10.042;2022-12-08T10:04:19;2.30;;;0.40;;
15637;SDS011;26604;53.596;10.042;2022-12-08T10:06:54;1.02;;;0.63;;
15637;SDS011;26604;53.596;10.042;2022-12-08T10:09:31;1.42;;;0.45;;
15637;SDS011;26604;53.596;10.042;2022-12-08T10:12:04;5.25;;;0.70;;
15637;SDS011;26604;53.596;10.042;2022-12-08T10:14:40;2.90;;;0.80;;
15637;SDS011;26604;53.596;10.042;2022-12-08T10:17:11;2.80;;;0.77;;
15637;SDS011;26604;53.596;10.042;2022-12-08T10:19:42;2.17;;;0.60;;
15637;SDS011;26604;53.596;10.042;2022-12-08T10:22:13;1.30;;;0.60;;
15637;SDS011;26604;53.596;10.042;2022-12-08T10:24:45;1.30;;;0.50;;
15637;SDS011;26604;53.596;10.042;2022-12-08T10:27:19;4.15;;;0.70;;
15637;SDS011;26604;53.596;10.042;2022-12-08T10:29:46;1.65;;;0.70;;
15637;SDS011;26604;53.596;10.042;2022-12-08T10:32:16;2.58;;;0.70;;
15637;SDS011;26604;53.596;10.042;2022-12-08T10:34:58;3.90;;;0.60;;
15637;SDS011;26604;53.596;10.042;2022-12-08T10:37:30;4.53;;;0.50;;
15637;SDS011;26604;53.596;10.042;2022-12-08T10:39:58;2.90;;;0.70;;
15637;SDS011;26604;53.596;10.042;2022-12-08T10:42:29;3.63;;;0.50;;
15637;SDS011;26604;53.596;10.042;2022-12-08T10:45:02;0.52;;;0.38;;
15637;SDS011;26604;53.596;10.042;2022-12-08T10:47:41;2.85;;;0.60;;
15637;SDS011;26604;53.596;10.042;2022-12-08T10:50:17;1.73;;;0.60;;
15637;SDS011;26604;53.596;10.042;2022-12-08T10:52:53;4.00;;;0.70;;
15637;SDS011;26604;53.596;10.042;2022-12-08T10:55:21;7.95;;;0.80;;
15637;SDS011;26604;53.596;10.042;2022-12-08T10:57:48;3.65;;;0.45;;
15637;SDS011;26604;53.596;10.042;2022-12-08T11:00:16;1.98;;;0.47;;
15637;SDS011;26604;53.596;10.042;2022-12-08T11:02:55;6.20;;;0.60;;
15637;SDS011;26604;53.596;10.042;2022-12-08T11:05:25;5.50;;;1.70;;
15637;SDS011;26604;53.596;10.042;2022-12-08T11:07:57;2.38;;;0.40;;
15637;SDS011;26604;53.596;10.042;2022-12-08T11:10:29;5.03;;;0.70;;
15637;SDS011;26604;53.596;10.042;2022-12-08T11:13:03;1.85;;;0.70;;
15637;SDS011;26604;53.596;10.042;2022-12-08T11:15:33;2.50;;;0.90;;
15637;SDS011;26604;53.596;10.042;2022-12-08T11:18:06;2.88;;;0.63;;
15637;SDS011;26604;53.596;10.042;2022-12-08T11:20:45;2.85;;;0.70;;
15637;SDS011;26604;53.596;10.042;2022-12-08T11:23:20;2.03;;;0.55;;
15637;SDS011;26604;53.596;10.042;2022-12-08T11:25:49;3.58;;;0.50;;
15637;SDS011;26604;53.596;10.042;2022-12-08T11:28:21;4.10;;;0.95;;
15637;SDS011;26604;53.596;10.042;2022-12-08T11:30:51;5.45;;;1.00;;
15637;SDS011;26604;53.596;10.042;2022-12-08T11:33:22;1.13;;;0.55;;
15637;SDS011;26604;53.596;10.042;2022-12-08T11:35:51;3.42;;;0.90;;
15637;SDS011;26604;53.596;10.042;2022-12-08T11:38:25;3.53;;;0.63;;
15637;SDS011;26604;53.596;10.042;2022-12-08T11:40:54;3.35;;;0.85;;
15637;SDS011;26604;53.596;10.042;2022-12-08T11:43:26;5.40;;;0.60;;
15637;SDS011;26604;53.596;10.042;2022-12-08T11:46:02;3.90;;;1.30;;
15637;SDS011;26604;53.596;10.042;2022-12-08T11:48:34;3.53;;;1.33;;
15637;SDS011;26604;53.596;10.042;2022-12-08T11:51:07;8.05;;;1.08;;
15637;SDS011;26604;53.596;10.042;2022-12-08T11:53:40;2.60;;;0.90;;
15637;SDS011;26604;53.596;10.042;2022-12-08T11:56:15;1.85;;;1.10;;
15637;SDS011;26604;53.596;10.042;2022-12-08T11:58:47;2.95;;;0.82;;
15637;SDS011;26604;53.596;10.042;2022-12-08T12:01:18;5.32;;;0.90;;
15637;SDS011;26604;53.596;10.042;2022-12-08T12:03:48;1.92;;;1.00;;
15637;SDS011;26604;53.596;10.042;2022-12-08T12:06:31;2.65;;;0.80;;
15637;SDS011;26604;53.596;10.042;2022-12-08T12:09:20;3.35;;;0.95;;
15637;SDS011;26604;53.596;10.042;2022-12-08T12:11:57;3.25;;;1.20;;
15637;SDS011;26604;53.596;10.042;2022-12-08T12:14:46;3.50;;;0.90;;
15637;SDS011;26604;53.596;10.042;2022-12-08T12:17:51;5.22;;;1.15;;
15637;SDS011;26604;53.596;10.042;2022-12-08T12:20:22;1.63;;;0.90;;
15637;SDS011;26604;53.596;10.042;2022-12-08T12:22:55;3.97;;;1.02;;
15637;SDS011;26604;53.596;10.042;2022-12-08T12:25:27;6.35;;;0.80;;
15637;SDS011;26604;53.596;10.042;2022-12-08T12:27:56;9.15;;;1.73;;
15637;SDS011;26604;53.596;10.042;2022-12-08T12:30:27;5.22;;;1.05;;
15637;SDS011;26604;53.596;10.042;2022-12-08T12:33:00;5.60;;;1.20;;
15637;SDS011;26604;53.596;10.042;2022-12-08T12:35:31;3.80;;;1.00;;
15637;SDS011;26604;53.596;10.042;2022-12-08T12:38:02;2.92;;;0.90;;
15637;SDS011;26604;53.596;10.042;2022-12-08T12:40:57;5.25;;;1.27;;
15637;SDS011;26604;53.596;10.042;2022-12-08T12:43:28;3.80;;;0.90;;
15637;SDS011;26604;53.596;10.042;2022-12-08T12:52:03;2.45;;;0.70;;
15637;SDS011;26604;53.596;10.042;2022-12-08T12:58:19;7.00;;;1.10;;
15637;SDS011;26604;53.596;10.042;2022-12-08T13:04:02;3.25;;;1.17;;
15637;SDS011;26604;53.596;10.042;2022-12-08T13:06:32;3.45;;;1.05;;
15637;SDS011;26604;53.596;10.042;2022-12-08T13:09:01;2.67;;;0.70;;
15637;SDS011;26604;53.596;10.042;2022-12-08T13:11:29;6.53;;;1.00;;
15637;SDS011;26604;53.596;10.042;2022-12-08T13:14:22;6.20;;;1.13;;
15637;SDS011;26604;53.596;10.042;2022-12-08T13:16:53;6.47;;;1.10;;
15637;SDS011;26604;53.596;10.042;2022-12-08T13:19:22;2.42;;;0.82;;
15637;SDS011;26604;53.596;10.042;2022-12-08T13:21:49;3.38;;;0.80;;
15637;SDS011;26604;53.596;10.042;2022-12-08T13:24:26;6.68;;;0.80;;
15637;SDS011;26604;53.596;10.042;2022-12-08T13:33:14;4.10;;;0.80;;
15637;SDS011;26604;53.596;10.042;2022-12-08T13:35:46;3.15;;;0.90;;
15637;SDS011;26604;53.596;10.042;2022-12-08T13:38:18;3.58;;;1.10;;
15637;SDS011;26604;53.596;10.042;2022-12-08T13:40:47;7.25;;;0.95;;
15637;SDS011;26604;53.596;10.042;2022-12-08T13:43:16;8.35;;;1.02;;
15637;SDS011;26604;53.596;10.042;2022-12-08T13:45:49;6.72;;;1.20;;
15637;SDS011;26604;53.596;10.042;2022-12-08T13:48:19;5.50;;;0.98;;
15637;SDS011;26604;53.596;10.042;2022-12-08T13:50:52;11.38;;;1.33;;
15637;SDS011;26604;53.596;10.042;2022-12-08T13:53:23;5.70;;;1.05;;
15637;SDS011;26604;53.596;10.042;2022-12-08T13:55:54;3.08;;;1.10;;
15637;SDS011;26604;53.596;10.042;2022-12-08T13:58:24;6.65;;;1.13;;
15637;SDS011;26604;53.596;10.042;2022-12-08T14:00:59;2.08;;;1.02;;
15637;SDS011;26604;53.596;10.042;2022-12-08T14:03:29;2.40;;;1.20;;
15637;SDS011;26604;53.596;10.042;2022-12-08T14:06:03;4.57;;;1.50;;
15637;SDS011;26604;53.596;10.042;2022-12-08T14:08:32;6.78;;;1.23;;
15637;SDS011;26604;53.596;10.042;2022-12-08T14:11:00;6.63;;;1.40;;
15637;SDS011;26604;53.596;10.042;2022-12-08T14:13:29;3.50;;;1.02;;
15637;SDS011;26604;53.596;10.042;2022-12-08T14:15:59;5.72;;;1.40;;
15637;SDS011;26604;53.596;10.042;2022-12-08T14:18:27;3.15;;;1.30;;
15637;SDS011;26604;53.596;10.042;2022-12-08T14:21:00;5.10;;;1.38;;
15637;SDS011;26604;53.596;10.042;2022-12-08T14:23:29;5.00;;;1.00;;
15637;SDS011;26604;53.596;10.042;2022-12-08T14:25:59;5.35;;;1.00;;
15637;SDS011;26604;53.596;10.042;2022-12-08T14:28:26;3.13;;;1.23;;
15637;SDS011;26604;53.596;10.042;2022-12-08T14:30:54;9.07;;;1.35;;
15637;SDS011;26604;53.596;10.042;2022-12-08T14:33:22;2.15;;;0.88;;
15637;SDS011;26604;53.596;10.042;2022-12-08T14:35:51;10.60;;;1.38;;
15637;SDS011;26604;53.596;10.042;2022-12-08T14:38:20;10.88;;;1.45;;
15637;SDS011;26604;53.596;10.042;2022-12-08T14:40:58;6.47;;;1.10;;
15637;SDS011;26604;53.596;10.042;2022-12-08T14:43:27;3.80;;;1.02;;
15637;SDS011;26604;53.596;10.042;2022-12-08T14:45:56;4.78;;;1.15;;
15637;SDS011;26604;53.596;10.042;2022-12-08T14:48:38;7.40;;;1.30;;
15637;SDS011;26604;53.596;10.042;2022-12-08T14:51:11;6.00;;;1.65;;
15637;SDS011;26604;53.596;10.042;2022-12-08T14:53:42;3.50;;;1.00;;
15637;SDS011;26604;53.596;10.042;2022-12-08T14:56:16;3.10;;;0.93;;
15637;SDS011;26604;53.596;10.042;2022-12-08T14:58:46;6.78;;;1.25;;
15637;SDS011;26604;53.596;10.042;2022-12-08T15:01:15;10.05;;;1.23;;
15637;SDS011;26604;53.596;10.042;2022-12-08T15:03:48;4.95;;;1.10;;
15637;SDS011;26604;53.596;10.042;2022-12-08T15:06:15;6.85;;;1.00;;
15637;SDS011;26604;53.596;10.042;2022-12-08T15:08:49;3.85;;;0.73;;
15637;SDS011;26604;53.596;10.042;2022-12-08T15:11:25;3.65;;;1.00;;
15637;SDS011;26604;53.596;10.042;2022-12-08T15:13:56;7.60;;;1.08;;